sensor_id;sensor_type;location;lat;lon;timestamp;P1;durP1;ratioP1;P2;durP2;ratioP2
25752;SDS011;13600;50.816;4.416;2024-03-02T00:00:21;2.30;;;0.55;;
25752;SDS011;13600;50.816;4.416;2024-03-02T00:02:48;1.27;;;0.60;;
25752;SDS011;13600;50.816;4.416;2024-03-02T00:05:15;1.35;;;0.60;;
25752;SDS011;13600;50.816;4.416;2024-03-02T00:07:47;1.90;;;0.60;;
25752;SDS011;13600;50.816;4.416;2024-03-02T00:10:19;1.13;;;0.50;;
25752;SDS011;13600;50.816;4.416;2024-03-02T00:12:48;1.40;;;0.52;;
25752;SDS011;13600;50.816;4.416;2024-03-02T00:15:37;1.75;;;0.60;;
25752;SDS011;13600;50.816;4.416;2024-03-02T00:18:06;0.35;;;0.35;;
25752;SDS011;13600;50.816;4.416;2024-03-02T00:20:33;1.35;;;0.68;;
25752;SDS011;13600;50.816;4.416;2024-03-02T00:23:06;1.00;;;0.52;;
25752;SDS011;13600;50.816;4.416;2024-03-02T00:25:38;0.45;;;0.40;;
25752;SDS011;13600;50.816;4.416;2024-03-02T00:28:19;1.30;;;0.30;;
25752;SDS011;13600;50.816;4.416;2024-03-02T00:33:47;2.42;;;0.50;;
25752;SDS011;13600;50.816;4.416;2024-03-02T00:36:24;1.17;;;0.40;;
25752;SDS011;13600;50.816;4.416;2024-03-02T00:38:52;2.08;;;0.40;;
25752;SDS011;13600;50.816;4.416;2024-03-02T00:41:23;2.72;;;0.55;;
25752;SDS011;13600;50.816;4.416;2024-03-02T00:46:39;2.05;;;0.40;;
25752;SDS011;13600;50.816;4.416;2024-03-02T00:49:10;0.70;;;0.43;;
25752;SDS011;13600;50.816;4.416;2024-03-02T00:51:48;1.55;;;0.40;;
25752;SDS011;13600;50.816;4.416;2024-03-02T00:54:15;2.65;;;0.40;;
25752;SDS011;13600;50.816;4.416;2024-03-02T00:56:49;1.05;;;0.47;;
25752;SDS011;13600;50.816;4.416;2024-03-02T00:59:15;0.40;;;0.40;;
25752;SDS011;13600;50.816;4.416;2024-03-02T01:01:41;1.48;;;0.47;;
25752;SDS011;13600;50.816;4.416;2024-03-02T01:04:10;1.85;;;0.45;;
25752;SDS011;13600;50.816;4.416;2024-03-02T01:06:35;0.85;;;0.40;;
25752;SDS011;13600;50.816;4.416;2024-03-02T01:09:01;1.00;;;0.40;;
25752;SDS011;13600;50.816;4.416;2024-03-02T01:11:30;0.52;;;0.40;;
25752;SDS011;13600;50.816;4.416;2024-03-02T01:13:56;2.67;;;0.60;;
25752;SDS011;13600;50.816;4.416;2024-03-02T01:16:22;3.08;;;0.40;;
25752;SDS011;13600;50.816;4.416;2024-03-02T01:18:48;0.40;;;0.30;;
25752;SDS011;13600;50.816;4.416;2024-03-02T01:21:14;0.63;;;0.30;;
25752;SDS011;13600;50.816;4.416;2024-03-02T01:23:40;0.47;;;0.30;;
25752;SDS011;13600;50.816;4.416;2024-03-02T01:26:06;2.15;;;0.43;;
25752;SDS011;13600;50.816;4.416;2024-03-02T01:28:32;1.65;;;0.40;;
25752;SDS011;13600;50.816;4.416;2024-03-02T01:30:58;0.70;;;0.40;;
25752;SDS011;13600;50.816;4.416;2024-03-02T01:33:24;3.60;;;0.50;;
25752;SDS011;13600;50.816;4.416;2024-03-02T01:35:49;2.25;;;0.55;;
25752;SDS011;13600;50.816;4.416;2024-03-02T01:38:15;0.75;;;0.40;;
25752;SDS011;13600;50.816;4.416;2024-03-02T01:40:41;1.55;;;0.40;;
25752;SDS011;13600;50.816;4.416;2024-03-02T01:43:09;1.00;;;0.40;;
25752;SDS011;13600;50.816;4.416;2024-03-02T01:45:35;1.23;;;0.50;;
25752;SDS011;13600;50.816;4.416;2024-03-02T01:48:02;1.50;;;0.50;;
25752;SDS011;13600;50.816;4.416;2024-03-02T01:50:31;1.92;;;0.50;;
25752;SDS011;13600;50.816;4.416;2024-03-02T01:52:58;2.38;;;0.40;;
25752;SDS011;13600;50.816;4.416;2024-03-02T01:55:24;1.88;;;0.50;;
25752;SDS011;13600;50.816;4.416;2024-03-02T01:57:51;1.65;;;0.40;;
25752;SDS011;13600;50.816;4.416;2024-03-02T02:00:20;5.25;;;0.50;;
25752;SDS011;13600;50.816;4.416;2024-03-02T02:02:46;2.78;;;0.40;;
25752;SDS011;13600;50.816;4.416;2024-03-02T02:05:13;1.60;;;0.50;;
25752;SDS011;13600;50.816;4.416;2024-03-02T02:07:42;3.08;;;0.50;;
25752;SDS011;13600;50.816;4.416;2024-03-02T02:10:09;3.22;;;0.63;;
25752;SDS011;13600;50.816;4.416;2024-03-02T02:12:35;1.13;;;0.70;;
25752;SDS011;13600;50.816;4.416;2024-03-02T02:15:03;2.75;;;0.65;;
25752;SDS011;13600;50.816;4.416;2024-03-02T02:17:46;1.42;;;0.50;;
25752;SDS011;13600;50.816;4.416;2024-03-02T02:20:12;3.00;;;0.80;;
25752;SDS011;13600;50.816;4.416;2024-03-02T02:22:37;4.47;;;0.75;;
25752;SDS011;13600;50.816;4.416;2024-03-02T02:25:03;2.88;;;0.80;;
25752;SDS011;13600;50.816;4.416;2024-03-02T02:27:29;2.55;;;0.60;;
25752;SDS011;13600;50.816;4.416;2024-03-02T02:29:55;1.23;;;0.52;;
25752;SDS011;13600;50.816;4.416;2024-03-02T02:32:21;3.22;;;0.60;;
25752;SDS011;13600;50.816;4.416;2024-03-02T02:34:47;3.78;;;0.70;;
25752;SDS011;13600;50.816;4.416;2024-03-02T02:37:17;1.58;;;0.50;;
25752;SDS011;13600;50.816;4.416;2024-03-02T02:39:43;4.45;;;0.82;;
25752;SDS011;13600;50.816;4.416;2024-03-02T02:42:09;2.53;;;0.50;;
25752;SDS011;13600;50.816;4.416;2024-03-02T02:44:34;3.53;;;0.55;;
25752;SDS011;13600;50.816;4.416;2024-03-02T02:47:00;1.85;;;0.82;;
25752;SDS011;13600;50.816;4.416;2024-03-02T02:49:27;1.73;;;0.52;;
25752;SDS011;13600;50.816;4.416;2024-03-02T02:51:53;3.65;;;0.75;;
25752;SDS011;13600;50.816;4.416;2024-03-02T02:54:19;2.85;;;0.40;;
25752;SDS011;13600;50.816;4.416;2024-03-02T02:56:44;2.70;;;0.70;;
25752;SDS011;13600;50.816;4.416;2024-03-02T02:59:10;2.78;;;0.73;;
25752;SDS011;13600;50.816;4.416;2024-03-02T03:01:36;3.15;;;0.47;;
25752;SDS011;13600;50.816;4.416;2024-03-02T03:04:01;3.60;;;0.90;;
25752;SDS011;13600;50.816;4.416;2024-03-02T03:06:29;2.58;;;0.70;;
25752;SDS011;13600;50.816;4.416;2024-03-02T03:08:55;2.20;;;0.70;;
25752;SDS011;13600;50.816;4.416;2024-03-02T03:11:21;4.90;;;1.10;;
25752;SDS011;13600;50.816;4.416;2024-03-02T03:13:47;4.22;;;0.77;;
25752;SDS011;13600;50.816;4.416;2024-03-02T03:16:13;4.80;;;0.80;;
25752;SDS011;13600;50.816;4.416;2024-03-02T03:18:39;4.60;;;0.80;;
25752;SDS011;13600;50.816;4.416;2024-03-02T03:21:04;2.60;;;0.70;;
25752;SDS011;13600;50.816;4.416;2024-03-02T03:23:30;2.08;;;0.70;;
25752;SDS011;13600;50.816;4.416;2024-03-02T03:25:56;4.10;;;0.77;;
25752;SDS011;13600;50.816;4.416;2024-03-02T03:28:22;3.10;;;0.80;;
25752;SDS011;13600;50.816;4.416;2024-03-02T03:30:47;5.82;;;1.20;;
25752;SDS011;13600;50.816;4.416;2024-03-02T03:33:13;3.30;;;0.70;;
25752;SDS011;13600;50.816;4.416;2024-03-02T03:35:39;3.65;;;0.80;;
25752;SDS011;13600;50.816;4.416;2024-03-02T03:38:04;2.33;;;0.70;;
25752;SDS011;13600;50.816;4.416;2024-03-02T03:40:30;3.17;;;0.82;;
25752;SDS011;13600;50.816;4.416;2024-03-02T03:42:56;6.88;;;1.10;;
25752;SDS011;13600;50.816;4.416;2024-03-02T03:45:22;6.47;;;1.27;;
25752;SDS011;13600;50.816;4.416;2024-03-02T03:47:47;3.05;;;0.90;;
25752;SDS011;13600;50.816;4.416;2024-03-02T03:50:13;3.35;;;0.80;;
25752;SDS011;13600;50.816;4.416;2024-03-02T03:52:39;6.78;;;1.00;;
25752;SDS011;13600;50.816;4.416;2024-03-02T03:55:06;5.68;;;0.90;;
25752;SDS011;13600;50.816;4.416;2024-03-02T03:57:33;2.35;;;0.63;;
25752;SDS011;13600;50.816;4.416;2024-03-02T03:59:59;5.32;;;0.80;;
25752;SDS011;13600;50.816;4.416;2024-03-02T04:02:25;4.45;;;1.00;;
25752;SDS011;13600;50.816;4.416;2024-03-02T04:04:51;5.65;;;0.95;;
25752;SDS011;13600;50.816;4.416;2024-03-02T04:07:17;5.57;;;0.85;;
25752;SDS011;13600;50.816;4.416;2024-03-02T04:09:43;2.85;;;0.80;;
25752;SDS011;13600;50.816;4.416;2024-03-02T04:12:08;6.72;;;1.00;;
25752;SDS011;13600;50.816;4.416;2024-03-02T04:14:34;3.88;;;0.80;;
25752;SDS011;13600;50.816;4.416;2024-03-02T04:17:00;7.57;;;1.23;;
25752;SDS011;13600;50.816;4.416;2024-03-02T04:19:26;2.92;;;0.70;;
25752;SDS011;13600;50.816;4.416;2024-03-02T04:21:53;4.72;;;0.73;;
25752;SDS011;13600;50.816;4.416;2024-03-02T04:24:19;6.20;;;1.10;;
25752;SDS011;13600;50.816;4.416;2024-03-02T04:26:44;5.45;;;1.00;;
25752;SDS011;13600;50.816;4.416;2024-03-02T04:29:10;4.95;;;0.82;;
25752;SDS011;13600;50.816;4.416;2024-03-02T04:31:36;6.13;;;0.75;;
25752;SDS011;13600;50.816;4.416;2024-03-02T04:34:02;5.88;;;0.93;;
25752;SDS011;13600;50.816;4.416;2024-03-02T04:36:28;4.75;;;0.90;;
25752;SDS011;13600;50.816;4.416;2024-03-02T04:38:54;7.50;;;1.23;;
25752;SDS011;13600;50.816;4.416;2024-03-02T04:41:20;7.43;;;1.05;;
25752;SDS011;13600;50.816;4.416;2024-03-02T04:43:47;5.40;;;0.80;;
25752;SDS011;13600;50.816;4.416;2024-03-02T04:46:13;5.90;;;0.85;;
25752;SDS011;13600;50.816;4.416;2024-03-02T04:48:40;5.30;;;0.95;;
25752;SDS011;13600;50.816;4.416;2024-03-02T04:51:06;4.72;;;0.93;;
25752;SDS011;13600;50.816;4.416;2024-03-02T04:53:31;7.28;;;1.00;;
25752;SDS011;13600;50.816;4.416;2024-03-02T04:55:57;5.93;;;0.90;;
25752;SDS011;13600;50.816;4.416;2024-03-02T04:58:43;8.73;;;1.00;;
25752;SDS011;13600;50.816;4.416;2024-03-02T05:01:08;5.07;;;0.93;;
25752;SDS011;13600;50.816;4.416;2024-03-02T05:03:34;5.65;;;1.05;;
25752;SDS011;13600;50.816;4.416;2024-03-02T05:06:00;7.35;;;0.95;;
25752;SDS011;13600;50.816;4.416;2024-03-02T05:08:26;5.43;;;1.02;;
25752;SDS011;13600;50.816;4.416;2024-03-02T05:10:51;7.15;;;1.35;;
25752;SDS011;13600;50.816;4.416;2024-03-02T05:13:17;6.05;;;1.25;;
25752;SDS011;13600;50.816;4.416;2024-03-02T05:15:43;5.80;;;1.00;;
25752;SDS011;13600;50.816;4.416;2024-03-02T05:18:09;6.45;;;0.98;;
25752;SDS011;13600;50.816;4.416;2024-03-02T05:20:34;5.40;;;0.70;;
25752;SDS011;13600;50.816;4.416;2024-03-02T05:23:00;10.23;;;1.00;;
25752;SDS011;13600;50.816;4.416;2024-03-02T05:25:26;5.53;;;1.05;;
25752;SDS011;13600;50.816;4.416;2024-03-02T05:27:52;6.55;;;0.82;;
25752;SDS011;13600;50.816;4.416;2024-03-02T05:30:17;7.20;;;1.42;;
25752;SDS011;13600;50.816;4.416;2024-03-02T05:32:43;4.70;;;0.90;;
25752;SDS011;13600;50.816;4.416;2024-03-02T05:35:09;5.10;;;0.60;;
25752;SDS011;13600;50.816;4.416;2024-03-02T05:37:36;8.27;;;1.00;;
25752;SDS011;13600;50.816;4.416;2024-03-02T05:40:03;6.57;;;1.20;;
25752;SDS011;13600;50.816;4.416;2024-03-02T05:42:30;2.45;;;0.82;;
25752;SDS011;13600;50.816;4.416;2024-03-02T05:44:56;3.45;;;0.80;;
25752;SDS011;13600;50.816;4.416;2024-03-02T05:47:22;5.97;;;1.13;;
25752;SDS011;13600;50.816;4.416;2024-03-02T05:49:47;7.38;;;1.15;;
25752;SDS011;13600;50.816;4.416;2024-03-02T05:52:13;4.60;;;1.00;;
25752;SDS011;13600;50.816;4.416;2024-03-02T05:54:39;8.38;;;0.98;;
25752;SDS011;13600;50.816;4.416;2024-03-02T05:57:05;7.25;;;1.10;;
25752;SDS011;13600;50.816;4.416;2024-03-02T06:00:02;5.93;;;1.00;;
25752;SDS011;13600;50.816;4.416;2024-03-02T06:02:33;8.32;;;1.20;;
25752;SDS011;13600;50.816;4.416;2024-03-02T06:05:00;6.97;;;1.33;;
25752;SDS011;13600;50.816;4.416;2024-03-02T06:07:26;9.68;;;1.35;;
25752;SDS011;13600;50.816;4.416;2024-03-02T06:09:51;9.52;;;1.30;;
25752;SDS011;13600;50.816;4.416;2024-03-02T06:12:18;6.72;;;1.20;;
25752;SDS011;13600;50.816;4.416;2024-03-02T06:14:44;10.25;;;1.30;;
25752;SDS011;13600;50.816;4.416;2024-03-02T06:17:09;8.65;;;1.33;;
25752;SDS011;13600;50.816;4.416;2024-03-02T06:19:35;5.68;;;1.25;;
25752;SDS011;13600;50.816;4.416;2024-03-02T06:22:01;10.02;;;1.77;;
25752;SDS011;13600;50.816;4.416;2024-03-02T06:24:27;7.38;;;1.60;;
25752;SDS011;13600;50.816;4.416;2024-03-02T06:26:52;8.73;;;1.73;;
25752;SDS011;13600;50.816;4.416;2024-03-02T06:29:18;10.88;;;1.40;;
25752;SDS011;13600;50.816;4.416;2024-03-02T06:31:44;8.48;;;2.92;;
25752;SDS011;13600;50.816;4.416;2024-03-02T06:34:09;9.00;;;2.03;;
25752;SDS011;13600;50.816;4.416;2024-03-02T06:36:35;10.25;;;1.50;;
25752;SDS011;13600;50.816;4.416;2024-03-02T06:39:01;7.35;;;1.40;;
25752;SDS011;13600;50.816;4.416;2024-03-02T06:41:26;6.78;;;1.30;;
25752;SDS011;13600;50.816;4.416;2024-03-02T06:43:53;7.13;;;1.48;;
25752;SDS011;13600;50.816;4.416;2024-03-02T06:46:24;5.47;;;1.20;;
25752;SDS011;13600;50.816;4.416;2024-03-02T06:48:50;7.05;;;1.45;;
25752;SDS011;13600;50.816;4.416;2024-03-02T06:51:16;4.30;;;1.10;;
25752;SDS011;13600;50.816;4.416;2024-03-02T06:53:42;4.78;;;1.02;;
25752;SDS011;13600;50.816;4.416;2024-03-02T06:56:07;10.60;;;1.30;;
25752;SDS011;13600;50.816;4.416;2024-03-02T06:58:34;6.65;;;1.08;;
25752;SDS011;13600;50.816;4.416;2024-03-02T07:01:00;10.05;;;1.20;;
25752;SDS011;13600;50.816;4.416;2024-03-02T07:03:25;8.77;;;1.08;;
25752;SDS011;13600;50.816;4.416;2024-03-02T07:05:51;5.47;;;1.17;;
25752;SDS011;13600;50.816;4.416;2024-03-02T07:08:17;8.60;;;0.95;;
25752;SDS011;13600;50.816;4.416;2024-03-02T07:10:42;9.65;;;1.38;;
25752;SDS011;13600;50.816;4.416;2024-03-02T07:13:08;4.03;;;1.13;;
25752;SDS011;13600;50.816;4.416;2024-03-02T07:15:34;6.57;;;1.15;;
25752;SDS011;13600;50.816;4.416;2024-03-02T07:18:22;5.32;;;1.10;;
25752;SDS011;13600;50.816;4.416;2024-03-02T07:20:48;10.07;;;1.20;;
25752;SDS011;13600;50.816;4.416;2024-03-02T07:23:16;8.20;;;1.25;;
25752;SDS011;13600;50.816;4.416;2024-03-02T07:25:42;5.28;;;0.98;;
25752;SDS011;13600;50.816;4.416;2024-03-02T07:28:08;12.77;;;1.77;;
25752;SDS011;13600;50.816;4.416;2024-03-02T07:30:33;13.45;;;1.55;;
25752;SDS011;13600;50.816;4.416;2024-03-02T07:33:00;6.93;;;1.42;;
25752;SDS011;13600;50.816;4.416;2024-03-02T07:35:27;5.70;;;2.03;;
25752;SDS011;13600;50.816;4.416;2024-03-02T07:37:53;8.15;;;1.38;;
25752;SDS011;13600;50.816;4.416;2024-03-02T07:40:20;8.63;;;1.58;;
25752;SDS011;13600;50.816;4.416;2024-03-02T07:42:47;11.05;;;1.45;;
25752;SDS011;13600;50.816;4.416;2024-03-02T07:45:13;8.70;;;0.90;;
25752;SDS011;13600;50.816;4.416;2024-03-02T07:47:38;5.05;;;1.10;;
25752;SDS011;13600;50.816;4.416;2024-03-02T07:50:04;11.48;;;1.30;;
25752;SDS011;13600;50.816;4.416;2024-03-02T07:52:34;11.05;;;1.40;;
25752;SDS011;13600;50.816;4.416;2024-03-02T07:55:00;10.27;;;1.30;;
25752;SDS011;13600;50.816;4.416;2024-03-02T07:57:25;6.32;;;1.30;;
25752;SDS011;13600;50.816;4.416;2024-03-02T07:59:51;5.50;;;1.20;;
25752;SDS011;13600;50.816;4.416;2024-03-02T08:02:17;8.15;;;1.20;;
25752;SDS011;13600;50.816;4.416;2024-03-02T08:04:43;7.38;;;1.50;;
25752;SDS011;13600;50.816;4.416;2024-03-02T08:07:11;9.60;;;2.83;;
25752;SDS011;13600;50.816;4.416;2024-03-02T08:09:37;10.35;;;1.83;;
25752;SDS011;13600;50.816;4.416;2024-03-02T08:12:04;13.20;;;1.52;;
25752;SDS011;13600;50.816;4.416;2024-03-02T08:14:30;11.48;;;1.60;;
25752;SDS011;13600;50.816;4.416;2024-03-02T08:16:55;6.80;;;1.30;;
25752;SDS011;13600;50.816;4.416;2024-03-02T08:19:21;14.02;;;1.65;;
25752;SDS011;13600;50.816;4.416;2024-03-02T08:21:48;11.02;;;1.27;;
25752;SDS011;13600;50.816;4.416;2024-03-02T08:24:14;6.90;;;1.30;;
25752;SDS011;13600;50.816;4.416;2024-03-02T08:26:39;8.52;;;1.58;;
25752;SDS011;13600;50.816;4.416;2024-03-02T08:29:05;8.38;;;1.35;;
25752;SDS011;13600;50.816;4.416;2024-03-02T08:31:31;8.07;;;1.20;;
25752;SDS011;13600;50.816;4.416;2024-03-02T08:33:57;11.15;;;1.60;;
25752;SDS011;13600;50.816;4.416;2024-03-02T08:36:24;9.55;;;1.30;;
25752;SDS011;13600;50.816;4.416;2024-03-02T08:38:49;9.05;;;1.40;;
25752;SDS011;13600;50.816;4.416;2024-03-02T08:41:16;6.95;;;1.00;;
25752;SDS011;13600;50.816;4.416;2024-03-02T08:43:42;7.22;;;1.40;;
25752;SDS011;13600;50.816;4.416;2024-03-02T08:46:08;6.80;;;1.23;;
25752;SDS011;13600;50.816;4.416;2024-03-02T08:48:34;8.52;;;1.52;;
25752;SDS011;13600;50.816;4.416;2024-03-02T08:51:00;8.25;;;1.52;;
25752;SDS011;13600;50.816;4.416;2024-03-02T08:53:26;7.55;;;1.05;;
25752;SDS011;13600;50.816;4.416;2024-03-02T08:55:51;9.40;;;1.40;;
25752;SDS011;13600;50.816;4.416;2024-03-02T08:58:17;7.00;;;1.05;;
25752;SDS011;13600;50.816;4.416;2024-03-02T09:00:43;7.28;;;0.93;;
25752;SDS011;13600;50.816;4.416;2024-03-02T09:03:09;8.70;;;1.30;;
25752;SDS011;13600;50.816;4.416;2024-03-02T09:05:35;9.15;;;1.25;;
25752;SDS011;13600;50.816;4.416;2024-03-02T09:08:02;9.95;;;1.08;;
25752;SDS011;13600;50.816;4.416;2024-03-02T09:10:28;7.90;;;1.45;;
25752;SDS011;13600;50.816;4.416;2024-03-02T09:12:55;6.05;;;1.13;;
25752;SDS011;13600;50.816;4.416;2024-03-02T09:15:21;7.15;;;1.15;;
25752;SDS011;13600;50.816;4.416;2024-03-02T09:17:47;8.10;;;1.17;;
25752;SDS011;13600;50.816;4.416;2024-03-02T09:20:12;6.65;;;1.13;;
25752;SDS011;13600;50.816;4.416;2024-03-02T09:22:39;9.50;;;1.70;;
25752;SDS011;13600;50.816;4.416;2024-03-02T09:25:04;6.93;;;1.40;;
25752;SDS011;13600;50.816;4.416;2024-03-02T09:27:38;9.50;;;1.40;;
25752;SDS011;13600;50.816;4.416;2024-03-02T09:30:09;13.10;;;1.35;;
25752;SDS011;13600;50.816;4.416;2024-03-02T09:32:36;10.68;;;1.20;;
25752;SDS011;13600;50.816;4.416;2024-03-02T09:35:02;9.82;;;1.70;;
25752;SDS011;13600;50.816;4.416;2024-03-02T09:37:28;8.40;;;1.17;;
25752;SDS011;13600;50.816;4.416;2024-03-02T09:39:55;15.50;;;1.20;;
25752;SDS011;13600;50.816;4.416;2024-03-02T09:42:21;8.75;;;1.63;;
25752;SDS011;13600;50.816;4.416;2024-03-02T09:44:47;10.40;;;1.33;;
25752;SDS011;13600;50.816;4.416;2024-03-02T09:47:13;10.80;;;1.50;;
25752;SDS011;13600;50.816;4.416;2024-03-02T09:49:39;10.95;;;1.75;;
25752;SDS011;13600;50.816;4.416;2024-03-02T09:52:05;9.75;;;1.60;;
25752;SDS011;13600;50.816;4.416;2024-03-02T09:54:32;8.57;;;1.30;;
25752;SDS011;13600;50.816;4.416;2024-03-02T09:56:58;8.80;;;1.17;;
25752;SDS011;13600;50.816;4.416;2024-03-02T09:59:26;8.77;;;1.45;;
25752;SDS011;13600;50.816;4.416;2024-03-02T10:01:59;9.48;;;0.98;;
25752;SDS011;13600;50.816;4.416;2024-03-02T10:04:29;6.43;;;1.00;;
25752;SDS011;13600;50.816;4.416;2024-03-02T10:07:11;6.13;;;1.13;;
25752;SDS011;13600;50.816;4.416;2024-03-02T10:09:41;7.00;;;1.30;;
25752;SDS011;13600;50.816;4.416;2024-03-02T10:12:08;13.95;;;1.45;;
25752;SDS011;13600;50.816;4.416;2024-03-02T10:14:36;7.82;;;1.20;;
25752;SDS011;13600;50.816;4.416;2024-03-02T10:17:03;8.65;;;1.10;;
25752;SDS011;13600;50.816;4.416;2024-03-02T10:19:33;8.57;;;1.40;;
25752;SDS011;13600;50.816;4.416;2024-03-02T10:22:06;7.13;;;1.27;;
25752;SDS011;13600;50.816;4.416;2024-03-02T10:24:40;5.10;;;1.20;;
25752;SDS011;13600;50.816;4.416;2024-03-02T10:27:09;6.40;;;1.40;;
25752;SDS011;13600;50.816;4.416;2024-03-02T10:29:47;4.88;;;1.20;;
25752;SDS011;13600;50.816;4.416;2024-03-02T10:32:14;7.88;;;1.08;;
25752;SDS011;13600;50.816;4.416;2024-03-02T10:34:41;7.05;;;1.27;;
25752;SDS011;13600;50.816;4.416;2024-03-02T10:37:08;7.70;;;0.90;;
25752;SDS011;13600;50.816;4.416;2024-03-02T10:39:35;7.28;;;1.27;;
25752;SDS011;13600;50.816;4.416;2024-03-02T10:42:02;6.90;;;1.10;;
25752;SDS011;13600;50.816;4.416;2024-03-02T10:44:28;6.57;;;1.10;;
25752;SDS011;13600;50.816;4.416;2024-03-02T10:46:55;7.60;;;1.27;;
25752;SDS011;13600;50.816;4.416;2024-03-02T10:49:25;8.00;;;1.30;;
25752;SDS011;13600;50.816;4.416;2024-03-02T10:51:52;7.93;;;1.10;;
25752;SDS011;13600;50.816;4.416;2024-03-02T10:54:18;6.15;;;1.25;;
25752;SDS011;13600;50.816;4.416;2024-03-02T10:56:50;6.93;;;1.10;;
25752;SDS011;13600;50.816;4.416;2024-03-02T10:59:33;5.40;;;1.35;;
25752;SDS011;13600;50.816;4.416;2024-03-02T11:02:01;9.25;;;1.25;;
25752;SDS011;13600;50.816;4.416;2024-03-02T11:04:28;9.05;;;1.35;;
25752;SDS011;13600;50.816;4.416;2024-03-02T11:07:02;9.00;;;1.10;;
25752;SDS011;13600;50.816;4.416;2024-03-02T11:09:31;8.77;;;1.35;;
25752;SDS011;13600;50.816;4.416;2024-03-02T11:12:03;8.57;;;1.05;;
25752;SDS011;13600;50.816;4.416;2024-03-02T11:14:34;5.60;;;1.20;;
25752;SDS011;13600;50.816;4.416;2024-03-02T11:17:05;5.53;;;0.90;;
25752;SDS011;13600;50.816;4.416;2024-03-02T11:19:32;7.18;;;1.15;;
25752;SDS011;13600;50.816;4.416;2024-03-02T11:21:59;7.60;;;1.15;;
25752;SDS011;13600;50.816;4.416;2024-03-02T11:27:04;7.57;;;1.00;;
25752;SDS011;13600;50.816;4.416;2024-03-02T11:32:15;5.95;;;1.38;;
25752;SDS011;13600;50.816;4.416;2024-03-02T11:34:42;5.90;;;0.90;;
25752;SDS011;13600;50.816;4.416;2024-03-02T11:37:12;8.45;;;1.40;;
25752;SDS011;13600;50.816;4.416;2024-03-02T11:39:39;6.72;;;1.10;;
25752;SDS011;13600;50.816;4.416;2024-03-02T11:42:06;11.32;;;3.33;;
25752;SDS011;13600;50.816;4.416;2024-03-02T11:44:34;6.80;;;1.35;;
25752;SDS011;13600;50.816;4.416;2024-03-02T11:47:01;4.95;;;1.38;;
25752;SDS011;13600;50.816;4.416;2024-03-02T11:52:11;6.00;;;1.10;;
25752;SDS011;13600;50.816;4.416;2024-03-02T11:54:39;6.03;;;1.30;;
25752;SDS011;13600;50.816;4.416;2024-03-02T11:57:11;6.50;;;1.30;;
25752;SDS011;13600;50.816;4.416;2024-03-02T11:59:37;4.97;;;1.20;;
25752;SDS011;13600;50.816;4.416;2024-03-02T12:02:03;6.45;;;1.27;;
25752;SDS011;13600;50.816;4.416;2024-03-02T12:04:29;4.65;;;1.20;;
25752;SDS011;13600;50.816;4.416;2024-03-02T12:06:59;6.75;;;1.33;;
25752;SDS011;13600;50.816;4.416;2024-03-02T12:09:26;4.78;;;1.25;;
25752;SDS011;13600;50.816;4.416;2024-03-02T12:12:06;6.03;;;1.38;;
25752;SDS011;13600;50.816;4.416;2024-03-02T12:14:33;8.90;;;1.40;;
25752;SDS011;13600;50.816;4.416;2024-03-02T12:17:01;4.13;;;1.25;;
25752;SDS011;13600;50.816;4.416;2024-03-02T12:19:28;5.65;;;1.17;;
25752;SDS011;13600;50.816;4.416;2024-03-02T12:21:58;4.00;;;0.93;;
25752;SDS011;13600;50.816;4.416;2024-03-02T12:24:26;5.03;;;0.88;;
25752;SDS011;13600;50.816;4.416;2024-03-02T12:26:53;6.32;;;1.13;;
25752;SDS011;13600;50.816;4.416;2024-03-02T12:29:19;6.65;;;1.20;;
25752;SDS011;13600;50.816;4.416;2024-03-02T12:31:49;5.85;;;1.20;;
25752;SDS011;13600;50.816;4.416;2024-03-02T12:34:17;5.88;;;0.80;;
25752;SDS011;13600;50.816;4.416;2024-03-02T12:36:44;5.15;;;0.93;;
25752;SDS011;13600;50.816;4.416;2024-03-02T12:39:12;4.25;;;0.93;;
25752;SDS011;13600;50.816;4.416;2024-03-02T12:41:39;5.50;;;0.88;;
25752;SDS011;13600;50.816;4.416;2024-03-02T12:44:05;2.58;;;0.77;;
25752;SDS011;13600;50.816;4.416;2024-03-02T12:46:31;2.90;;;0.82;;
25752;SDS011;13600;50.816;4.416;2024-03-02T12:48:58;3.05;;;0.60;;
25752;SDS011;13600;50.816;4.416;2024-03-02T12:51:29;6.22;;;0.85;;
25752;SDS011;13600;50.816;4.416;2024-03-02T12:53:56;4.78;;;1.10;;
25752;SDS011;13600;50.816;4.416;2024-03-02T12:56:24;4.53;;;0.85;;
25752;SDS011;13600;50.816;4.416;2024-03-02T12:58:53;2.38;;;0.90;;
25752;SDS011;13600;50.816;4.416;2024-03-02T13:01:20;4.28;;;1.00;;
25752;SDS011;13600;50.816;4.416;2024-03-02T13:03:51;2.47;;;0.73;;
25752;SDS011;13600;50.816;4.416;2024-03-02T13:06:18;2.75;;;0.60;;
25752;SDS011;13600;50.816;4.416;2024-03-02T13:08:45;2.17;;;0.70;;
25752;SDS011;13600;50.816;4.416;2024-03-02T13:11:16;3.65;;;0.77;;
25752;SDS011;13600;50.816;4.416;2024-03-02T13:13:42;3.28;;;0.80;;
25752;SDS011;13600;50.816;4.416;2024-03-02T13:16:08;3.33;;;0.57;;
25752;SDS011;13600;50.816;4.416;2024-03-02T13:18:40;2.58;;;0.50;;
25752;SDS011;13600;50.816;4.416;2024-03-02T13:21:06;3.05;;;0.70;;
25752;SDS011;13600;50.816;4.416;2024-03-02T13:23:35;3.95;;;0.85;;
25752;SDS011;13600;50.816;4.416;2024-03-02T13:26:01;6.03;;;0.98;;
25752;SDS011;13600;50.816;4.416;2024-03-02T13:28:27;4.10;;;0.60;;
25752;SDS011;13600;50.816;4.416;2024-03-02T13:30:53;4.35;;;0.77;;
25752;SDS011;13600;50.816;4.416;2024-03-02T13:33:19;3.05;;;0.93;;
25752;SDS011;13600;50.816;4.416;2024-03-02T13:35:50;4.82;;;0.80;;
25752;SDS011;13600;50.816;4.416;2024-03-02T13:38:20;2.85;;;0.55;;
25752;SDS011;13600;50.816;4.416;2024-03-02T13:40:46;7.53;;;1.08;;
25752;SDS011;13600;50.816;4.416;2024-03-02T13:43:17;2.85;;;0.75;;
25752;SDS011;13600;50.816;4.416;2024-03-02T13:45:46;8.65;;;1.00;;
25752;SDS011;13600;50.816;4.416;2024-03-02T13:48:12;4.15;;;0.98;;
25752;SDS011;13600;50.816;4.416;2024-03-02T13:50:39;6.20;;;1.05;;
25752;SDS011;13600;50.816;4.416;2024-03-02T13:53:05;4.75;;;0.93;;
25752;SDS011;13600;50.816;4.416;2024-03-02T13:55:33;4.55;;;0.90;;
25752;SDS011;13600;50.816;4.416;2024-03-02T13:57:59;7.65;;;1.20;;
25752;SDS011;13600;50.816;4.416;2024-03-02T14:00:24;3.88;;;0.90;;
25752;SDS011;13600;50.816;4.416;2024-03-02T14:02:51;5.43;;;1.00;;
25752;SDS011;13600;50.816;4.416;2024-03-02T14:05:17;7.22;;;1.00;;
25752;SDS011;13600;50.816;4.416;2024-03-02T14:07:44;3.58;;;0.75;;
25752;SDS011;13600;50.816;4.416;2024-03-02T14:10:10;3.72;;;0.90;;
25752;SDS011;13600;50.816;4.416;2024-03-02T14:12:37;2.92;;;0.90;;
25752;SDS011;13600;50.816;4.416;2024-03-02T14:15:03;2.95;;;0.73;;
25752;SDS011;13600;50.816;4.416;2024-03-02T14:17:29;3.72;;;0.82;;
25752;SDS011;13600;50.816;4.416;2024-03-02T14:19:58;3.03;;;0.70;;
25752;SDS011;13600;50.816;4.416;2024-03-02T14:22:24;2.08;;;0.80;;
25752;SDS011;13600;50.816;4.416;2024-03-02T14:24:50;4.25;;;0.93;;
25752;SDS011;13600;50.816;4.416;2024-03-02T14:27:16;2.50;;;0.65;;
25752;SDS011;13600;50.816;4.416;2024-03-02T14:29:46;3.55;;;1.15;;
25752;SDS011;13600;50.816;4.416;2024-03-02T14:32:12;4.85;;;0.98;;
25752;SDS011;13600;50.816;4.416;2024-03-02T14:34:38;3.67;;;1.02;;
25752;SDS011;13600;50.816;4.416;2024-03-02T14:37:04;2.53;;;0.90;;
25752;SDS011;13600;50.816;4.416;2024-03-02T14:39:30;5.40;;;0.88;;
25752;SDS011;13600;50.816;4.416;2024-03-02T14:41:59;3.58;;;0.90;;
25752;SDS011;13600;50.816;4.416;2024-03-02T14:44:26;4.72;;;0.90;;
25752;SDS011;13600;50.816;4.416;2024-03-02T14:46:52;3.83;;;0.98;;
25752;SDS011;13600;50.816;4.416;2024-03-02T14:49:17;4.68;;;0.70;;
25752;SDS011;13600;50.816;4.416;2024-03-02T14:51:43;3.78;;;0.90;;
25752;SDS011;13600;50.816;4.416;2024-03-02T14:54:09;5.30;;;1.17;;
25752;SDS011;13600;50.816;4.416;2024-03-02T14:56:36;5.75;;;1.23;;
25752;SDS011;13600;50.816;4.416;2024-03-02T14:59:02;5.97;;;1.48;;